createdAt,value
2018-09-30T00:00:00.338Z,0.00
2018-09-30T00:01:00.254Z,0.00
2018-09-30T00:02:00.171Z,0.00
2018-09-30T00:03:00.088Z,0.00
2018-09-30T00:04:00.006Z,0.00
2018-09-30T00:04:59.957Z,0.00
2018-09-30T00:05:59.841Z,0.00
2018-09-30T00:08:41.819Z,0.00
2018-09-30T00:09:41.803Z,0.00
2018-09-30T00:10:41.661Z,0.00
2018-09-30T00:11:41.579Z,0.00
2018-09-30T00:12:41.488Z,0.00
2018-09-30T00:13:41.420Z,0.00
2018-09-30T00:14:41.339Z,0.00
2018-09-30T00:15:41.270Z,0.00
2018-09-30T00:16:41.174Z,0.00
2018-09-30T00:17:41.096Z,0.00
2018-09-30T00:18:41.032Z,0.00
2018-09-30T00:19:41.061Z,0.00
2018-09-30T00:20:40.997Z,0.00
2018-09-30T00:23:22.819Z,0.00
2018-09-30T00:24:22.759Z,0.00
2018-09-30T00:25:22.678Z,0.00
2018-09-30T00:28:04.840Z,0.00
2018-09-30T00:29:04.742Z,0.00
2018-09-30T00:30:04.666Z,0.00
2018-09-30T00:31:05.679Z,0.00
2018-09-30T00:32:04.496Z,0.00
2018-09-30T00:33:04.427Z,0.00
2018-09-30T00:34:04.340Z,0.00
2018-09-30T00:35:04.256Z,0.00
2018-09-30T00:36:04.189Z,0.00
2018-09-30T00:38:46.359Z,0.00
2018-09-30T00:39:46.257Z,0.00
2018-09-30T00:40:46.173Z,0.00
2018-09-30T00:41:46.097Z,0.00
2018-09-30T00:42:45.997Z,0.00
2018-09-30T00:43:45.918Z,0.00
2018-09-30T00:44:45.844Z,0.00
2018-09-30T00:45:45.768Z,0.00
2018-09-30T00:46:45.698Z,0.00
2018-09-30T00:49:27.841Z,0.00
2018-09-30T00:52:09.858Z,0.00
2018-09-30T00:53:09.785Z,0.00
2018-09-30T00:54:09.663Z,0.00
2018-09-30T00:55:09.593Z,0.00
2018-09-30T00:56:09.589Z,0.00
2018-09-30T00:57:09.428Z,0.00
2018-09-30T00:58:09.331Z,0.00
2018-09-30T00:59:09.275Z,0.00
2018-09-30T01:00:09.174Z,0.00
2018-09-30T01:01:10.117Z,0.00
2018-09-30T01:02:09.038Z,0.00
2018-09-30T01:03:08.928Z,0.00
2018-09-30T01:04:08.833Z,0.00
2018-09-30T01:05:08.776Z,0.00
2018-09-30T01:06:08.673Z,0.00
2018-09-30T01:08:50.860Z,0.00
2018-09-30T01:09:50.761Z,0.00
2018-09-30T01:10:50.669Z,0.00
2018-09-30T01:13:32.862Z,0.00
2018-09-30T01:14:32.762Z,0.00
2018-09-30T01:15:32.674Z,0.00
2018-09-30T01:18:14.857Z,0.00
2018-09-30T01:20:56.848Z,0.00
2018-09-30T01:21:56.767Z,0.00
2018-09-30T01:22:56.683Z,0.00
2018-09-30T01:23:56.595Z,0.00
2018-09-30T01:24:56.502Z,0.00
2018-09-30T01:25:56.447Z,0.00
2018-09-30T01:26:56.381Z,0.00
2018-09-30T01:27:56.289Z,0.00
2018-09-30T01:28:56.180Z,0.00
2018-09-30T01:29:56.112Z,0.00
2018-09-30T01:30:56.019Z,0.00
2018-09-30T01:31:55.984Z,0.00
2018-09-30T01:32:55.869Z,0.00
2018-09-30T01:33:56.164Z,0.00
2018-09-30T01:34:55.696Z,0.00
2018-09-30T01:37:37.864Z,0.00
2018-09-30T01:38:37.796Z,0.00
2018-09-30T01:39:37.673Z,0.00
2018-09-30T01:40:37.595Z,0.00
2018-09-30T01:41:37.522Z,0.00
2018-09-30T01:42:37.443Z,0.00
2018-09-30T01:43:37.383Z,0.00
2018-09-30T01:46:19.350Z,0.00
2018-09-30T01:49:01.370Z,0.00
2018-09-30T01:50:01.270Z,0.00
2018-09-30T01:51:01.180Z,0.00
2018-09-30T01:52:01.126Z,0.00
2018-09-30T01:53:01.017Z,0.00
2018-09-30T01:54:00.975Z,0.00
2018-09-30T01:55:00.952Z,0.00
2018-09-30T01:56:00.768Z,0.00
2018-09-30T01:57:00.676Z,0.00
2018-09-30T01:58:00.752Z,0.00
2018-09-30T01:59:00.537Z,0.00
2018-09-30T02:01:42.344Z,0.00
2018-09-30T02:04:24.360Z,0.00
2018-09-30T02:07:06.349Z,0.00
2018-09-30T02:08:06.269Z,0.00
2018-09-30T02:09:06.244Z,0.00
2018-09-30T02:10:06.134Z,0.00
2018-09-30T02:11:06.079Z,0.00
2018-09-30T02:12:06.045Z,0.00
2018-09-30T02:13:06.114Z,0.00
2018-09-30T02:14:06.279Z,0.00
2018-09-30T02:15:05.939Z,0.00
2018-09-30T02:16:05.652Z,0.00
2018-09-30T02:17:05.524Z,0.00
2018-09-30T02:18:05.440Z,0.00
2018-09-30T02:19:05.463Z,0.00
2018-09-30T02:20:05.285Z,0.00
2018-09-30T02:21:05.180Z,0.00
2018-09-30T02:22:05.100Z,0.00
2018-09-30T02:23:05.012Z,0.00
2018-09-30T02:24:04.964Z,0.00
2018-09-30T02:25:04.871Z,0.00
2018-09-30T02:26:04.789Z,0.00
2018-09-30T02:27:04.688Z,0.00
2018-09-30T02:28:04.609Z,0.00
2018-09-30T02:29:04.548Z,0.00
2018-09-30T02:30:04.472Z,0.00
2018-09-30T02:31:04.347Z,0.00
2018-09-30T02:32:04.277Z,0.00
2018-09-30T02:33:04.191Z,0.00
2018-09-30T02:34:04.161Z,0.00
2018-09-30T02:35:04.032Z,0.00
2018-09-30T02:36:03.983Z,0.00
2018-09-30T02:37:03.864Z,0.00
2018-09-30T02:38:03.786Z,0.00
2018-09-30T02:39:03.693Z,0.00
2018-09-30T02:40:04.638Z,0.00
2018-09-30T02:41:03.545Z,0.00
2018-09-30T02:43:45.346Z,0.00
2018-09-30T02:44:45.302Z,0.00
2018-09-30T02:45:45.210Z,0.00
2018-09-30T02:46:45.125Z,0.00
2018-09-30T02:47:45.028Z,0.00
2018-09-30T02:48:44.945Z,0.00
2018-09-30T02:49:44.861Z,0.00
2018-09-30T02:50:45.809Z,0.00
2018-09-30T02:51:44.686Z,0.00
2018-09-30T02:54:26.846Z,0.00
2018-09-30T02:55:26.804Z,0.00
2018-09-30T02:56:26.706Z,0.00
2018-09-30T02:57:26.615Z,0.00
2018-09-30T02:58:26.519Z,0.00
2018-09-30T02:59:26.436Z,0.00
2018-09-30T03:00:26.385Z,0.00
2018-09-30T03:01:26.273Z,0.00
2018-09-30T03:02:26.189Z,0.00
2018-09-30T03:03:26.114Z,0.00
2018-09-30T03:04:26.023Z,0.00
2018-09-30T03:05:25.941Z,0.00
2018-09-30T03:06:25.927Z,0.00
2018-09-30T03:07:25.776Z,0.00
2018-09-30T03:08:25.694Z,0.00
2018-09-30T03:11:07.870Z,0.00
2018-09-30T03:12:07.809Z,0.00
2018-09-30T03:13:07.701Z,0.00
2018-09-30T03:14:07.613Z,0.00
2018-09-30T03:15:07.521Z,0.00
2018-09-30T03:16:07.451Z,0.00
2018-09-30T03:17:07.370Z,0.00
2018-09-30T03:18:07.280Z,0.00
2018-09-30T03:19:07.189Z,0.00
2018-09-30T03:20:07.130Z,0.00
2018-09-30T03:21:07.019Z,0.00
2018-09-30T03:22:07.985Z,0.00
2018-09-30T03:23:06.861Z,0.00
2018-09-30T03:24:06.788Z,0.00
2018-09-30T03:25:06.830Z,0.00
2018-09-30T03:26:06.613Z,0.00
2018-09-30T03:27:06.554Z,0.00
2018-09-30T03:28:06.492Z,0.00
2018-09-30T03:29:06.355Z,0.00
2018-09-30T03:30:06.302Z,0.00
2018-09-30T03:31:06.203Z,0.00
2018-09-30T03:32:06.148Z,0.00
2018-09-30T03:33:06.053Z,0.00
2018-09-30T03:34:05.946Z,0.00
2018-09-30T03:35:05.860Z,0.00
2018-09-30T03:36:05.777Z,0.00
2018-09-30T03:37:05.721Z,0.00
2018-09-30T03:38:05.608Z,0.00
2018-09-30T03:39:05.533Z,0.00
2018-09-30T03:40:05.448Z,0.00
2018-09-30T03:41:05.348Z,0.00
2018-09-30T03:42:05.335Z,0.00
2018-09-30T03:43:05.206Z,0.00
2018-09-30T03:44:05.106Z,0.00
2018-09-30T03:45:05.021Z,0.00
2018-09-30T03:46:04.938Z,0.00
2018-09-30T03:47:04.865Z,0.00
2018-09-30T03:48:04.795Z,0.00
2018-09-30T03:49:04.674Z,0.00
2018-09-30T03:50:04.606Z,0.00
2018-09-30T03:51:04.517Z,0.00
2018-09-30T03:52:04.454Z,0.00
2018-09-30T03:53:04.367Z,0.00
2018-09-30T03:54:04.275Z,0.00
2018-09-30T03:55:04.256Z,0.00
2018-09-30T03:56:04.112Z,0.00
2018-09-30T03:57:04.019Z,0.00
2018-09-30T03:58:04.110Z,0.00
2018-09-30T03:59:03.853Z,0.00
2018-09-30T04:00:03.784Z,0.00
2018-09-30T04:01:03.703Z,0.00
2018-09-30T04:02:03.602Z,0.00
2018-09-30T04:03:03.541Z,0.00
2018-09-30T04:04:03.429Z,0.00
2018-09-30T04:05:03.349Z,0.00
2018-09-30T04:06:03.274Z,0.00
2018-09-30T04:07:03.193Z,0.00
2018-09-30T04:08:03.173Z,0.00
2018-09-30T04:09:03.013Z,0.00
2018-09-30T04:10:03.011Z,0.00
2018-09-30T04:11:02.848Z,0.00
2018-09-30T04:12:02.766Z,0.00
2018-09-30T04:13:02.698Z,0.00
2018-09-30T04:14:03.620Z,0.00
2018-09-30T04:15:02.622Z,0.00
2018-09-30T04:16:02.462Z,0.00
2018-09-30T04:17:02.382Z,0.00
2018-09-30T04:18:02.397Z,0.00
2018-09-30T04:19:02.208Z,0.00
2018-09-30T04:20:02.110Z,0.00
2018-09-30T04:21:02.019Z,0.00
2018-09-30T04:22:01.928Z,0.00
2018-09-30T04:23:01.847Z,0.00
2018-09-30T04:24:02.792Z,0.00
2018-09-30T04:25:01.677Z,0.00
2018-09-30T04:26:01.606Z,0.00
2018-09-30T04:27:01.508Z,0.00
2018-09-30T04:29:43.376Z,0.00
2018-09-30T04:32:25.362Z,0.00
2018-09-30T04:33:25.328Z,0.00
2018-09-30T04:34:25.223Z,0.00
2018-09-30T04:35:25.139Z,0.00
2018-09-30T04:36:25.036Z,0.00
2018-09-30T04:37:24.954Z,0.00
2018-09-30T04:38:24.888Z,0.00
2018-09-30T04:39:25.826Z,0.00
2018-09-30T04:40:24.700Z,0.00
2018-09-30T04:41:24.618Z,0.00
2018-09-30T04:42:24.625Z,0.00
2018-09-30T04:43:24.461Z,0.00
2018-09-30T04:44:24.404Z,0.00
2018-09-30T04:45:24.405Z,0.00
2018-09-30T04:46:24.199Z,0.00
2018-09-30T04:49:06.405Z,0.00
2018-09-30T04:50:06.374Z,0.00
2018-09-30T04:51:06.200Z,0.00
2018-09-30T04:52:06.135Z,0.00
2018-09-30T04:53:06.035Z,0.00
2018-09-30T04:54:05.965Z,0.00
2018-09-30T04:55:05.995Z,0.00
2018-09-30T04:56:05.819Z,0.00
2018-09-30T04:57:05.710Z,0.00
2018-09-30T04:59:47.895Z,0.00
2018-09-30T05:00:47.789Z,0.00
2018-09-30T05:01:47.689Z,0.00
2018-09-30T05:04:29.910Z,0.00
2018-09-30T05:05:29.804Z,0.00
2018-09-30T05:06:29.698Z,0.00
2018-09-30T05:07:29.616Z,0.00
2018-09-30T05:08:29.526Z,0.00
2018-09-30T05:09:29.464Z,0.00
2018-09-30T05:10:29.394Z,0.00
2018-09-30T05:11:29.296Z,0.00
2018-09-30T05:12:29.201Z,0.00
2018-09-30T05:15:11.394Z,0.00
2018-09-30T05:16:11.398Z,0.00
2018-09-30T05:17:11.216Z,0.00
2018-09-30T05:18:11.124Z,0.00
2018-09-30T05:19:11.038Z,0.00
2018-09-30T05:20:10.982Z,0.00
2018-09-30T05:21:10.869Z,0.00
2018-09-30T05:22:10.806Z,0.00
2018-09-30T05:23:10.705Z,5.63
2018-09-30T05:25:52.893Z,5.63
2018-09-30T05:26:52.851Z,5.63
2018-09-30T05:27:52.697Z,5.63
2018-09-30T05:28:52.635Z,5.63
2018-09-30T05:29:52.551Z,11.25
2018-09-30T05:30:52.501Z,11.25
2018-09-30T05:31:52.364Z,11.25
2018-09-30T05:34:34.383Z,16.88
2018-09-30T05:35:35.308Z,16.88
2018-09-30T05:36:34.237Z,16.88
2018-09-30T05:37:34.137Z,16.88
2018-09-30T05:38:34.034Z,22.50
2018-09-30T05:39:33.962Z,22.50
2018-09-30T05:40:33.876Z,22.50
2018-09-30T05:41:33.829Z,22.50
2018-09-30T05:42:33.702Z,28.13
2018-09-30T05:43:33.627Z,28.13
2018-09-30T05:44:33.536Z,28.13
2018-09-30T05:47:15.892Z,33.75
2018-09-30T05:48:15.801Z,33.75
2018-09-30T05:49:15.779Z,39.38
2018-09-30T05:50:15.632Z,39.38
2018-09-30T05:51:15.539Z,39.38
2018-09-30T05:52:16.467Z,39.38
2018-09-30T05:53:15.373Z,45.00
2018-09-30T05:54:15.289Z,45.00
2018-09-30T05:55:15.206Z,45.00
2018-09-30T05:56:15.127Z,45.00
2018-09-30T05:57:15.052Z,50.63
2018-09-30T05:59:57.381Z,56.25
2018-09-30T06:00:57.301Z,56.25
2018-09-30T06:01:57.222Z,56.25
2018-09-30T06:02:57.136Z,56.25
2018-09-30T06:03:57.097Z,56.25
2018-09-30T06:04:56.964Z,61.88
2018-09-30T06:05:56.888Z,61.88
2018-09-30T06:06:56.827Z,67.50
2018-09-30T06:07:56.720Z,67.50
2018-09-30T06:08:56.703Z,67.50
2018-09-30T06:09:56.534Z,67.50
2018-09-30T06:10:56.455Z,67.50
2018-09-30T06:11:56.379Z,67.50
2018-09-30T06:12:56.335Z,73.13
2018-09-30T06:13:56.274Z,73.13
2018-09-30T06:16:38.396Z,73.13
2018-09-30T06:17:39.325Z,78.75
2018-09-30T06:18:38.211Z,78.75
2018-09-30T06:19:38.138Z,78.75
2018-09-30T06:20:38.050Z,84.38
2018-09-30T06:21:37.997Z,84.38
2018-09-30T06:22:37.903Z,84.38
2018-09-30T06:25:19.899Z,90.00
2018-09-30T06:26:19.802Z,90.00
2018-09-30T06:27:19.718Z,90.00
2018-09-30T06:28:20.775Z,90.00
2018-09-30T06:29:19.549Z,95.63
2018-09-30T06:30:19.481Z,95.63
2018-09-30T06:31:19.439Z,95.63
2018-09-30T06:32:19.300Z,95.63
2018-09-30T06:33:19.248Z,101.25
2018-09-30T06:36:01.392Z,101.25
2018-09-30T06:37:01.317Z,101.25
2018-09-30T06:38:01.234Z,106.88
2018-09-30T06:39:01.172Z,106.88
2018-09-30T06:40:01.040Z,106.88
2018-09-30T06:41:01.007Z,106.88
2018-09-30T06:42:00.873Z,106.88
2018-09-30T06:43:00.796Z,112.50
2018-09-30T06:44:00.749Z,118.13
2018-09-30T06:45:00.700Z,118.13
2018-09-30T06:46:00.549Z,118.13
2018-09-30T06:48:42.902Z,118.13
2018-09-30T06:51:24.884Z,129.38
2018-09-30T06:52:24.831Z,123.75
2018-09-30T06:53:24.749Z,129.38
2018-09-30T06:54:24.648Z,135.00
2018-09-30T06:55:24.555Z,140.63
2018-09-30T06:56:24.472Z,151.88
2018-09-30T06:57:24.397Z,146.25
2018-09-30T06:58:24.321Z,151.88
2018-09-30T06:59:24.240Z,168.75
2018-09-30T07:00:24.145Z,174.38
2018-09-30T07:01:24.064Z,196.88
2018-09-30T07:02:23.979Z,213.75
2018-09-30T07:03:23.891Z,241.88
2018-09-30T07:04:23.832Z,286.88
2018-09-30T07:05:23.719Z,348.75
2018-09-30T07:06:23.696Z,405.00
2018-09-30T07:07:23.554Z,393.75
2018-09-30T07:08:23.486Z,348.75
2018-09-30T07:09:23.403Z,343.13
2018-09-30T07:10:23.306Z,382.50
2018-09-30T07:11:23.215Z,410.63
2018-09-30T07:12:23.143Z,393.75
2018-09-30T07:13:23.062Z,360.00
2018-09-30T07:14:22.993Z,405.00
2018-09-30T07:15:22.895Z,433.13
2018-09-30T07:16:22.825Z,630.00
2018-09-30T07:17:22.733Z,742.50
2018-09-30T07:18:22.665Z,725.63
2018-09-30T07:19:22.585Z,742.50
2018-09-30T07:20:23.518Z,894.38
2018-09-30T07:21:22.407Z,956.25
2018-09-30T07:22:22.347Z,916.88
2018-09-30T07:23:22.257Z,860.63
2018-09-30T07:26:04.403Z,866.25
2018-09-30T07:27:04.317Z,978.75
2018-09-30T07:28:04.223Z,973.13
2018-09-30T07:29:04.152Z,871.88
2018-09-30T07:30:04.099Z,810.00
2018-09-30T07:31:04.018Z,826.88
2018-09-30T07:32:03.903Z,855.00
2018-09-30T07:33:03.832Z,939.38
2018-09-30T07:34:03.759Z,1125.00
2018-09-30T07:35:03.689Z,1119.38
2018-09-30T07:36:03.581Z,1006.88
2018-09-30T07:37:03.501Z,1288.13
2018-09-30T07:38:03.435Z,1400.63
2018-09-30T07:40:45.418Z,1411.88
2018-09-30T07:41:45.322Z,1451.25
2018-09-30T07:42:45.235Z,1501.88
2018-09-30T07:43:45.152Z,1389.38
2018-09-30T07:44:45.070Z,1299.38
2018-09-30T07:45:45.058Z,1248.75
2018-09-30T07:46:44.987Z,1226.25
2018-09-30T07:47:44.842Z,1158.75
2018-09-30T07:48:44.751Z,1130.63
2018-09-30T07:49:44.681Z,1226.25
2018-09-30T07:50:44.617Z,1321.88
2018-09-30T07:53:26.911Z,1518.75
2018-09-30T07:56:08.942Z,1951.88
2018-09-30T07:58:51.011Z,1518.75
2018-09-30T07:59:50.814Z,1726.88
2018-09-30T08:00:50.799Z,1760.63
2018-09-30T08:01:50.679Z,1687.50
2018-09-30T08:02:50.580Z,1575.00
2018-09-30T08:03:50.521Z,1957.50
2018-09-30T08:04:50.434Z,2913.75
2018-09-30T08:05:50.377Z,3414.38
2018-09-30T08:06:50.265Z,3465.00
2018-09-30T08:07:50.185Z,3211.88
2018-09-30T08:08:50.124Z,2334.38
2018-09-30T08:09:50.123Z,1575.00
2018-09-30T08:10:49.971Z,1186.88
2018-09-30T08:13:31.911Z,916.88
2018-09-30T08:14:31.831Z,838.13
2018-09-30T08:15:31.751Z,776.25
2018-09-30T08:16:31.769Z,753.75
2018-09-30T08:17:31.590Z,742.50
2018-09-30T08:20:13.410Z,708.75
2018-09-30T08:22:55.448Z,691.88
2018-09-30T08:23:55.364Z,686.25
2018-09-30T08:24:55.246Z,680.63
2018-09-30T08:25:55.175Z,641.25
2018-09-30T08:26:55.127Z,635.63
2018-09-30T08:27:55.102Z,613.13
2018-09-30T08:28:54.942Z,613.13
2018-09-30T08:29:54.887Z,607.50
2018-09-30T08:30:54.860Z,613.13
2018-09-30T08:31:54.745Z,618.75
2018-09-30T08:32:54.637Z,618.75
2018-09-30T08:33:54.563Z,618.75
2018-09-30T08:34:54.480Z,630.00
2018-09-30T08:35:54.404Z,630.00
2018-09-30T08:36:54.350Z,630.00
2018-09-30T08:37:54.263Z,624.38
2018-09-30T08:38:54.197Z,630.00
2018-09-30T08:39:54.109Z,630.00
2018-09-30T08:40:54.027Z,624.38
2018-09-30T08:41:53.975Z,618.75
2018-09-30T08:42:53.901Z,630.00
2018-09-30T08:43:53.847Z,641.25
2018-09-30T08:44:53.721Z,624.38
2018-09-30T08:45:53.730Z,630.00
2018-09-30T08:46:53.720Z,646.88
2018-09-30T08:47:53.526Z,635.63
2018-09-30T08:48:53.425Z,641.25
2018-09-30T08:49:53.369Z,635.63
2018-09-30T08:50:53.273Z,646.88
2018-09-30T08:51:53.204Z,652.50
2018-09-30T08:52:53.134Z,663.75
2018-09-30T08:53:53.106Z,658.13
2018-09-30T08:54:52.971Z,680.63
2018-09-30T08:55:52.929Z,697.50
2018-09-30T08:56:52.812Z,714.38
2018-09-30T08:57:52.788Z,725.63
2018-09-30T08:58:52.682Z,725.63
2018-09-30T08:59:52.596Z,720.00
2018-09-30T09:00:52.518Z,720.00
2018-09-30T09:01:52.528Z,731.25
2018-09-30T09:02:52.489Z,753.75
2018-09-30T09:05:34.433Z,894.38
2018-09-30T09:06:34.354Z,950.63
2018-09-30T09:07:34.272Z,995.63
2018-09-30T09:08:36.242Z,1102.50
2018-09-30T09:09:34.137Z,1119.38
2018-09-30T09:12:16.450Z,928.13
2018-09-30T09:13:17.387Z,939.38
2018-09-30T09:14:16.349Z,990.00
2018-09-30T09:15:16.306Z,1108.13
2018-09-30T09:16:16.151Z,1113.75
2018-09-30T09:17:16.059Z,1080.00
2018-09-30T09:18:15.991Z,1018.13
2018-09-30T09:19:16.923Z,1023.75
2018-09-30T09:20:15.839Z,1035.00
2018-09-30T09:22:57.922Z,1321.88
2018-09-30T09:23:58.965Z,1451.25
2018-09-30T09:24:57.783Z,1372.50
2018-09-30T09:25:57.705Z,1321.88
2018-09-30T09:26:57.743Z,1406.25
2018-09-30T09:27:57.636Z,1428.75
2018-09-30T09:28:57.518Z,1378.13
2018-09-30T09:29:57.435Z,1434.38
2018-09-30T09:30:57.354Z,1811.25
2018-09-30T09:31:57.287Z,1963.13
2018-09-30T09:32:57.254Z,1850.63
2018-09-30T09:33:57.164Z,1816.88
2018-09-30T09:34:57.085Z,1726.88
2018-09-30T09:35:57.071Z,1648.13
2018-09-30T09:36:56.916Z,1698.75
2018-09-30T09:39:38.967Z,2103.75
2018-09-30T09:40:38.873Z,1732.50
2018-09-30T09:41:38.792Z,1648.13
2018-09-30T09:42:38.735Z,1878.75
2018-09-30T09:43:38.673Z,1940.63
2018-09-30T09:44:38.621Z,2188.13
2018-09-30T09:45:38.500Z,2092.50
2018-09-30T09:48:20.439Z,2311.88
2018-09-30T09:49:20.425Z,2182.50
2018-09-30T09:50:20.294Z,2469.38
2018-09-30T09:51:20.227Z,2542.50
2018-09-30T09:52:20.214Z,2711.25
2018-09-30T09:53:20.080Z,2666.25
2018-09-30T09:54:20.029Z,2486.25
2018-09-30T09:55:19.974Z,2941.88
2018-09-30T09:56:19.870Z,2975.63
2018-09-30T09:57:19.807Z,2868.75
2018-09-30T09:58:19.727Z,3076.88
2018-09-30T09:59:19.809Z,3369.38
2018-09-30T10:00:19.597Z,3324.38
2018-09-30T10:03:01.456Z,3870.00
2018-09-30T10:04:01.385Z,3915.00
2018-09-30T10:05:01.356Z,3993.75
2018-09-30T10:06:01.255Z,4100.63
2018-09-30T10:07:01.203Z,4123.13
2018-09-30T10:08:01.108Z,4185.00
2018-09-30T10:09:01.018Z,4190.63
2018-09-30T10:10:00.961Z,4213.13
2018-09-30T10:11:00.897Z,4393.13
2018-09-30T10:13:42.956Z,4443.75
2018-09-30T10:14:42.913Z,4055.63
2018-09-30T10:15:42.829Z,4151.25
2018-09-30T10:16:42.762Z,4145.63
2018-09-30T10:17:42.680Z,3678.75
2018-09-30T10:18:42.619Z,3673.13
2018-09-30T10:19:42.545Z,3178.13
2018-09-30T10:20:42.522Z,3082.50
2018-09-30T10:21:42.403Z,2998.13
2018-09-30T10:22:42.351Z,2857.50
2018-09-30T10:23:42.256Z,2784.38
2018-09-30T10:24:42.185Z,2649.38
2018-09-30T10:25:42.175Z,2790.00
2018-09-30T10:26:42.045Z,2570.63
2018-09-30T10:27:41.984Z,2626.88
2018-09-30T10:30:23.962Z,2536.88
2018-09-30T10:31:23.907Z,2475.00
2018-09-30T10:32:23.831Z,2497.50
2018-09-30T10:33:23.757Z,2407.50
2018-09-30T10:34:23.710Z,2407.50
2018-09-30T10:35:23.610Z,2407.50
2018-09-30T10:36:23.552Z,2334.38
2018-09-30T10:37:23.481Z,2300.63
2018-09-30T10:38:23.424Z,2210.63
2018-09-30T10:39:23.493Z,2216.25
2018-09-30T10:40:23.255Z,2210.63
2018-09-30T10:41:23.236Z,2137.50
2018-09-30T10:42:23.125Z,2216.25
2018-09-30T10:43:23.056Z,2143.13
2018-09-30T10:44:22.982Z,2137.50
2018-09-30T10:45:22.916Z,2165.63
2018-09-30T10:46:22.847Z,2143.13
2018-09-30T10:49:04.967Z,2182.50
2018-09-30T10:50:04.935Z,2176.88
2018-09-30T10:51:04.858Z,2115.00
2018-09-30T10:52:04.780Z,2160.00
2018-09-30T10:53:04.683Z,2115.00
2018-09-30T10:55:46.985Z,2081.25
2018-09-30T10:56:46.976Z,1783.13
2018-09-30T10:57:46.845Z,2137.50
2018-09-30T10:58:46.790Z,2070.00
2018-09-30T10:59:46.689Z,2103.75
2018-09-30T11:00:46.640Z,2092.50
2018-09-30T11:01:46.573Z,2075.63
2018-09-30T11:02:46.500Z,2109.38
2018-09-30T11:03:46.396Z,1850.63
2018-09-30T11:04:46.343Z,2103.75
2018-09-30T11:05:46.265Z,2120.63
2018-09-30T11:06:46.229Z,1929.38
2018-09-30T11:07:46.147Z,2126.25
2018-09-30T11:08:46.066Z,2131.88
2018-09-30T11:09:46.073Z,2070.00
2018-09-30T11:10:45.935Z,2154.38
2018-09-30T11:11:45.851Z,2131.88
2018-09-30T11:12:45.823Z,2176.88
2018-09-30T11:13:45.705Z,2250.00
2018-09-30T11:14:45.644Z,2165.63
2018-09-30T11:15:45.558Z,2188.13
2018-09-30T11:16:45.521Z,2041.88
2018-09-30T11:17:45.444Z,2165.63
2018-09-30T11:18:45.442Z,2255.63
2018-09-30T11:19:45.274Z,2250.00
2018-09-30T11:20:45.230Z,2238.75
2018-09-30T11:21:45.167Z,2227.50
2018-09-30T11:22:45.087Z,2176.88
2018-09-30T11:23:45.004Z,1974.38
2018-09-30T11:24:44.946Z,2295.00
2018-09-30T11:25:44.864Z,2238.75
2018-09-30T11:26:44.790Z,2250.00
2018-09-30T11:27:44.746Z,2064.38
2018-09-30T11:28:44.688Z,2036.25
2018-09-30T11:29:44.590Z,2289.38
2018-09-30T11:30:44.550Z,2002.50
2018-09-30T11:31:44.474Z,2013.75
2018-09-30T11:32:44.375Z,2171.25
2018-09-30T11:33:44.323Z,2176.88
2018-09-30T11:34:44.248Z,2441.25
2018-09-30T11:35:44.167Z,2480.63
2018-09-30T11:36:44.096Z,2565.00
2018-09-30T11:37:44.064Z,2700.00
2018-09-30T11:38:44.989Z,2851.88
2018-09-30T11:39:43.916Z,2463.75
2018-09-30T11:40:43.821Z,2621.25
2018-09-30T11:41:43.827Z,2655.00
2018-09-30T11:44:26.036Z,2896.88
2018-09-30T11:47:08.000Z,2716.88
2018-09-30T11:48:07.931Z,2610.00
2018-09-30T11:49:07.879Z,3076.88
2018-09-30T11:50:07.802Z,2936.25
2018-09-30T11:51:07.726Z,2953.13
2018-09-30T11:52:07.643Z,3240.00
2018-09-30T11:53:07.570Z,3155.63
2018-09-30T11:54:08.536Z,3251.25
2018-09-30T11:55:07.441Z,3245.63
2018-09-30T11:57:49.499Z,1462.50
2018-09-30T11:58:49.460Z,309.38
2018-09-30T12:00:10.330Z,281.25
2018-09-30T12:00:49.294Z,270.00
2018-09-30T12:01:49.226Z,270.00
2018-09-30T12:02:49.144Z,258.75
2018-09-30T12:03:50.141Z,253.13
2018-09-30T12:04:49.015Z,247.50
2018-09-30T12:07:31.013Z,241.88
2018-09-30T12:08:30.941Z,236.25
2018-09-30T12:09:30.887Z,236.25
2018-09-30T12:10:30.786Z,230.63
2018-09-30T12:11:30.707Z,230.63
2018-09-30T12:12:30.634Z,230.63
2018-09-30T12:13:30.604Z,230.63
2018-09-30T12:14:30.525Z,230.63
2018-09-30T12:15:30.444Z,225.00
2018-09-30T12:16:30.341Z,225.00
2018-09-30T12:17:30.257Z,225.00
2018-09-30T12:18:30.195Z,225.00
2018-09-30T12:19:30.139Z,225.00
2018-09-30T12:20:30.072Z,225.00
2018-09-30T12:21:29.943Z,225.00
2018-09-30T12:24:12.054Z,219.38
2018-09-30T12:25:11.947Z,219.38
2018-09-30T12:26:11.845Z,219.38
2018-09-30T12:28:54.008Z,219.38
2018-09-30T12:29:53.978Z,219.38
2018-09-30T12:30:53.859Z,213.75
2018-09-30T12:33:36.020Z,213.75
2018-09-30T12:34:35.931Z,213.75
2018-09-30T12:35:35.958Z,213.75
2018-09-30T12:36:35.776Z,213.75
2018-09-30T12:37:35.720Z,208.13
2018-09-30T12:40:17.535Z,208.13
2018-09-30T12:41:17.440Z,208.13
2018-09-30T12:42:17.374Z,208.13
2018-09-30T12:44:59.516Z,208.13
2018-09-30T12:45:59.626Z,208.13
2018-09-30T12:46:59.345Z,202.50
2018-09-30T12:47:59.284Z,208.13
2018-09-30T12:48:59.209Z,202.50
2018-09-30T12:51:41.031Z,208.13
2018-09-30T12:54:23.021Z,202.50
2018-09-30T12:55:22.934Z,202.50
2018-09-30T12:56:22.868Z,202.50
2018-09-30T12:57:22.794Z,202.50
2018-09-30T12:58:22.715Z,202.50
2018-09-30T12:59:22.621Z,202.50
2018-09-30T13:00:22.584Z,202.50
2018-09-30T13:01:22.522Z,202.50
2018-09-30T13:02:22.374Z,202.50
2018-09-30T13:03:22.315Z,202.50
2018-09-30T13:04:22.220Z,202.50
2018-09-30T13:07:04.552Z,196.88
2018-09-30T13:08:04.455Z,196.88
2018-09-30T13:09:04.366Z,196.88
2018-09-30T13:10:04.306Z,202.50
2018-09-30T13:11:04.246Z,202.50
2018-09-30T13:12:04.147Z,191.25
2018-09-30T13:13:04.074Z,196.88
2018-09-30T13:14:03.975Z,191.25
2018-09-30T13:15:03.882Z,191.25
2018-09-30T13:16:03.843Z,191.25
2018-09-30T13:17:03.778Z,191.25
2018-09-30T13:18:04.668Z,191.25
2018-09-30T13:19:03.565Z,191.25
2018-09-30T13:20:03.510Z,191.25
2018-09-30T13:21:03.491Z,191.25
2018-09-30T13:22:03.498Z,191.25
2018-09-30T13:23:03.257Z,185.63
2018-09-30T13:25:45.514Z,185.63
2018-09-30T13:26:45.482Z,185.63
2018-09-30T13:27:45.390Z,185.63
2018-09-30T13:28:45.299Z,185.63
2018-09-30T13:29:45.205Z,180.00
2018-09-30T13:30:45.137Z,180.00
2018-09-30T13:31:45.074Z,180.00
2018-09-30T13:32:44.997Z,174.38
2018-09-30T13:33:44.905Z,174.38
2018-09-30T13:34:44.825Z,174.38
2018-09-30T13:35:44.742Z,174.38
2018-09-30T13:36:44.678Z,174.38
2018-09-30T13:37:44.613Z,174.38
2018-09-30T13:38:44.500Z,174.38
2018-09-30T13:39:44.420Z,174.38
2018-09-30T13:40:44.460Z,174.38
2018-09-30T13:41:44.260Z,168.75
2018-09-30T13:42:44.204Z,168.75
2018-09-30T13:43:44.260Z,168.75
2018-09-30T13:44:44.028Z,174.38
2018-09-30T13:45:43.936Z,174.38
2018-09-30T13:48:26.076Z,168.75
2018-09-30T13:49:25.966Z,168.75
2018-09-30T13:50:25.906Z,168.75
2018-09-30T13:51:25.798Z,168.75
2018-09-30T13:52:25.792Z,168.75
2018-09-30T13:53:25.671Z,174.38
2018-09-30T13:54:25.554Z,168.75
2018-09-30T13:55:25.567Z,168.75
2018-09-30T13:56:25.394Z,168.75
2018-09-30T13:57:25.323Z,168.75
2018-09-30T13:58:25.264Z,168.75
2018-09-30T13:59:25.160Z,168.75
2018-09-30T14:00:25.104Z,168.75
2018-09-30T14:01:24.995Z,168.75
2018-09-30T14:02:24.909Z,174.38
2018-09-30T14:03:24.882Z,168.75
2018-09-30T14:04:24.757Z,168.75
2018-09-30T14:07:07.125Z,168.75
2018-09-30T14:08:06.971Z,168.75
2018-09-30T14:09:07.089Z,168.75
2018-09-30T14:10:06.825Z,168.75
2018-09-30T14:11:06.722Z,168.75
2018-09-30T14:13:48.594Z,168.75
2018-09-30T14:14:48.476Z,168.75
2018-09-30T14:15:48.368Z,163.13
2018-09-30T14:16:48.321Z,168.75
2018-09-30T14:17:48.223Z,163.13
2018-09-30T14:18:48.182Z,163.13
2018-09-30T14:19:48.058Z,163.13
2018-09-30T14:20:47.996Z,163.13
2018-09-30T14:21:47.911Z,163.13
2018-09-30T14:22:47.819Z,163.13
2018-09-30T14:23:47.802Z,163.13
2018-09-30T14:24:47.702Z,163.13
2018-09-30T14:25:47.610Z,163.13
2018-09-30T14:26:47.510Z,163.13
2018-09-30T14:27:47.428Z,157.50
2018-09-30T14:28:47.392Z,157.50
2018-09-30T14:29:47.327Z,157.50
2018-09-30T14:30:47.186Z,157.50
2018-09-30T14:31:47.125Z,157.50
2018-09-30T14:32:47.026Z,163.13
2018-09-30T14:33:46.956Z,157.50
2018-09-30T14:34:46.876Z,157.50
2018-09-30T14:35:46.819Z,157.50
2018-09-30T14:36:46.711Z,157.50